Time;durP1;ratioP1;P1;durP2;ratioP2;P2;SDS_P1;SDS_P2;PMS_P1;PMS_P2;Temp;Humidity;BMP_temperature;BMP_pressure;BME280_temperature;BME280_humidity;BME280_pressure;Samples;Min_cycle;Max_cycle;Signal;HPM_P1;HPM_P2
2023/12/19 00:00:12;;;;;;;10.02;5.60;;;;;;;10.14;100.00;101276.97;4933306;29;20398;-68
2023/12/19 00:02:39;;;;;;;12.25;4.95;;;;;;;10.13;100.00;101281.56;4932429;29;20047;-69
2023/12/19 00:05:08;;;;;;;9.88;4.72;;;;;;;9.91;100.00;101269.31;4963863;28;20110;-69
2023/12/19 00:07:34;;;;;;;15.30;4.85;;;;;;;10.11;100.00;101272.25;4948403;28;20063;-68
2023/12/19 00:09:59;;;;;;;10.93;4.40;;;;;;;10.09;100.00;101275.25;4963652;28;20039;-68
2023/12/19 00:12:25;;;;;;;9.48;4.18;;;;;;;10.14;100.00;101267.00;4932557;29;20052;-68
2023/12/19 00:14:50;;;;;;;10.00;4.30;;;;;;;10.12;100.00;101253.09;4934786;29;20031;-68
2023/12/19 00:17:16;;;;;;;10.75;4.25;;;;;;;10.08;100.00;101262.94;4933276;29;20040;-68
2023/12/19 00:19:41;;;;;;;6.25;2.90;;;;;;;10.09;100.00;101267.19;4947481;29;20517;-68
2023/12/19 00:22:06;;;;;;;12.02;3.85;;;;;;;10.15;100.00;101260.50;4948118;28;20089;-68
2023/12/19 00:24:32;;;;;;;12.30;5.63;;;;;;;10.11;100.00;101264.97;4934556;29;20023;-68
2023/12/19 00:26:57;;;;;;;14.70;4.60;;;;;;;10.18;100.00;101270.56;4934712;29;20059;-68
2023/12/19 00:29:23;;;;;;;8.07;4.05;;;;;;;10.14;100.00;101279.69;4948898;28;21025;-68
2023/12/19 00:31:51;;;;;;;11.45;4.35;;;;;;;10.12;100.00;101274.63;4950199;28;20040;-68
2023/12/19 00:34:17;;;;;;;12.10;4.60;;;;;;;10.12;100.00;101266.56;4960711;28;20031;-68
2023/12/19 00:36:42;;;;;;;13.23;4.40;;;;;;;10.06;100.00;101259.81;4948131;28;20123;-68
2023/12/19 00:39:09;;;;;;;9.02;4.53;;;;;;;9.98;100.00;101260.69;4934306;29;20475;-68
2023/12/19 00:41:34;;;;;;;4.78;2.72;;;;;;;10.01;100.00;101265.38;4949776;28;20534;-68
2023/12/19 00:44:02;;;;;;;8.10;4.07;;;;;;;10.17;100.00;101271.72;4937148;29;20036;-68
2023/12/19 00:46:27;;;;;;;9.85;3.90;;;;;;;9.76;100.00;101258.41;4933275;29;20035;-68
2023/12/19 00:48:53;;;;;;;8.32;4.05;;;;;;;9.97;100.00;101269.88;4947424;29;20031;-68
2023/12/19 00:51:20;;;;;;;12.52;4.85;;;;;;;10.04;100.00;101253.97;4932432;29;20134;-68
2023/12/19 00:53:45;;;;;;;10.65;4.50;;;;;;;10.08;100.00;101248.69;4932174;29;20558;-68
2023/12/19 00:56:11;;;;;;;7.82;4.43;;;;;;;10.11;100.00;101246.13;4934180;29;20027;-68
2023/12/19 00:58:39;;;;;;;13.88;4.65;;;;;;;10.18;100.00;101254.44;4935384;29;20031;-68
2023/12/19 01:01:08;;;;;;;6.72;3.58;;;;;;;10.12;100.00;101246.94;4962702;28;20505;-68
2023/12/19 01:03:37;;;;;;;12.25;4.20;;;;;;;10.27;100.00;101230.88;4929603;29;20139;-68
2023/12/19 01:06:03;;;;;;;7.78;4.20;;;;;;;10.20;100.00;101219.13;4932570;28;20032;-68
2023/12/19 01:08:29;;;;;;;7.07;3.40;;;;;;;10.15;100.00;101240.88;4932913;29;20036;-68
2023/12/19 01:10:55;;;;;;;8.10;3.20;;;;;;;10.15;100.00;101236.28;4930556;29;20494;-68
2023/12/19 01:13:21;;;;;;;5.80;3.45;;;;;;;9.81;100.00;101242.84;4933197;29;20039;-68
2023/12/19 01:15:47;;;;;;;7.60;3.70;;;;;;;10.04;100.00;101243.19;4933291;29;20499;-68
2023/12/19 01:18:13;;;;;;;8.25;4.00;;;;;;;10.06;100.00;101248.25;4931460;29;20110;-68
2023/12/19 01:20:39;;;;;;;5.80;3.28;;;;;;;9.98;100.00;101253.41;4932410;29;20079;-68
2023/12/19 01:23:05;;;;;;;7.85;2.70;;;;;;;10.13;100.00;101246.59;4932043;29;20126;-68
2023/12/19 01:25:37;;;;;;;6.45;3.53;;;;;;;10.08;100.00;101246.78;4931472;29;20027;-69
2023/12/19 01:28:03;;;;;;;5.63;2.88;;;;;;;10.00;100.00;101242.31;4932093;29;20118;-68
2023/12/19 01:30:28;;;;;;;6.72;3.35;;;;;;;10.03;100.00;101258.56;4946565;28;20164;-69
2023/12/19 01:32:54;;;;;;;7.68;2.42;;;;;;;10.01;100.00;101250.03;4931150;29;20414;-68
2023/12/19 01:35:19;;;;;;;6.20;2.85;;;;;;;10.00;100.00;101237.72;4931529;29;20342;-68
2023/12/19 01:37:45;;;;;;;8.30;3.90;;;;;;;10.01;100.00;101249.25;4929926;29;20495;-68
2023/12/19 01:40:10;;;;;;;8.50;3.22;;;;;;;9.82;100.00;101243.63;4931868;29;20032;-68
2023/12/19 01:42:36;;;;;;;12.85;3.85;;;;;;;10.10;100.00;101238.41;4934792;29;20031;-68
2023/12/19 01:45:12;;;;;;;7.85;3.60;;;;;;;10.17;100.00;101230.53;4933134;29;20525;-68
2023/12/19 01:47:43;;;;;;;5.93;3.53;;;;;;;10.08;100.00;101229.84;4930040;29;20138;-68
2023/12/19 01:50:10;;;;;;;;;;;;;;;10.10;100.00;101220.38;4931354;29;20042;-68
2023/12/19 01:52:38;;;;;;;7.80;3.63;;;;;;;10.18;100.00;101197.16;4931459;28;19933;-68
2023/12/19 01:55:05;;;;;;;9.00;3.72;;;;;;;10.09;100.00;101199.91;4946156;28;20043;-68
2023/12/19 01:57:31;;;;;;;7.75;3.53;;;;;;;10.08;100.00;101187.59;4933262;29;20039;-68
2023/12/19 01:59:57;;;;;;;8.00;3.53;;;;;;;10.06;100.00;101184.47;4948496;28;20043;-68
2023/12/19 02:02:22;;;;;;;7.43;3.17;;;;;;;10.11;100.00;101189.63;4931918;29;20091;-68
2023/12/19 02:04:48;;;;;;;6.80;2.60;;;;;;;10.14;100.00;101175.50;4930484;29;20483;-69
2023/12/19 02:07:13;;;;;;;6.43;3.40;;;;;;;10.15;100.00;101168.19;4929932;29;20106;-68
2023/12/19 02:09:38;;;;;;;5.28;2.55;;;;;;;10.17;100.00;101184.78;4929438;29;20502;-68
2023/12/19 02:12:05;;;;;;;7.78;3.13;;;;;;;10.20;100.00;101198.34;4930765;29;20024;-68
2023/12/19 02:14:30;;;;;;;4.82;2.75;;;;;;;10.02;100.00;101197.00;4930606;29;20039;-69
2023/12/19 02:16:56;;;;;;;5.22;2.95;;;;;;;10.05;100.00;101199.03;4930828;29;20023;-68
2023/12/19 02:19:21;;;;;;;5.55;2.60;;;;;;;10.10;100.00;101174.63;4931031;29;20483;-68
2023/12/19 02:21:47;;;;;;;8.15;3.38;;;;;;;10.06;100.00;101184.47;4930171;29;20091;-68
2023/12/19 02:24:13;;;;;;;8.52;3.13;;;;;;;10.08;100.00;101184.91;4945083;28;20035;-69
2023/12/19 02:26:40;;;;;;;5.13;2.38;;;;;;;10.12;100.00;101167.00;4931372;29;20032;-68
2023/12/19 02:29:06;;;;;;;3.38;2.28;;;;;;;10.11;100.00;101178.88;4933473;29;20035;-69
2023/12/19 02:31:31;;;;;;;2.30;1.90;;;;;;;10.18;100.00;101165.63;4931978;29;20028;-68
2023/12/19 02:33:56;;;;;;;5.05;2.35;;;;;;;10.04;100.00;101157.88;4947791;28;20032;-68
2023/12/19 02:36:23;;;;;;;7.13;2.63;;;;;;;10.03;100.00;101175.16;4931635;29;20047;-68
2023/12/19 02:38:48;;;;;;;2.22;1.67;;;;;;;10.09;100.00;101166.84;4929809;29;20545;-68
2023/12/19 02:41:14;;;;;;;5.10;2.80;;;;;;;9.96;100.00;101176.84;4931257;29;20035;-68
2023/12/19 02:43:39;;;;;;;3.10;1.80;;;;;;;9.92;100.00;101170.56;4930767;29;20410;-68
2023/12/19 02:46:06;;;;;;;5.70;2.97;;;;;;;9.74;100.00;101171.91;4958923;28;20157;-68
2023/12/19 02:48:32;;;;;;;2.67;2.08;;;;;;;9.85;100.00;101175.72;4930823;29;20067;-68
2023/12/19 02:50:57;;;;;;;6.88;3.08;;;;;;;9.96;100.00;101160.69;4930124;29;20067;-68
2023/12/19 02:53:23;;;;;;;4.20;2.47;;;;;;;10.04;100.00;101162.47;4931394;29;20817;-68
2023/12/19 02:55:48;;;;;;;4.65;2.22;;;;;;;10.07;100.00;101158.31;4930762;29;20028;-68
2023/12/19 02:58:13;;;;;;;8.77;2.15;;;;;;;10.10;100.00;101153.09;4944777;28;20035;-68
2023/12/19 03:00:39;;;;;;;4.32;2.33;;;;;;;10.15;100.00;101155.53;4930317;29;20043;-68
2023/12/19 03:03:04;;;;;;;4.25;2.65;;;;;;;9.97;100.00;101154.97;4944888;28;20462;-68
2023/12/19 03:05:30;;;;;;;6.28;3.40;;;;;;;9.86;100.00;101142.31;4930913;29;20046;-68
2023/12/19 03:07:56;;;;;;;5.03;2.58;;;;;;;9.86;100.00;101145.00;4946057;28;20493;-68
2023/12/19 03:10:21;;;;;;;6.95;3.70;;;;;;;9.94;100.00;101139.50;4930042;29;20044;-68
2023/12/19 03:12:47;;;;;;;4.05;2.58;;;;;;;10.09;100.00;101148.00;4959484;28;20036;-68
2023/12/19 03:15:12;;;;;;;4.97;2.42;;;;;;;10.03;100.00;101144.75;4932031;28;20067;-68
2023/12/19 03:17:37;;;;;;;4.65;2.60;;;;;;;10.05;100.00;101134.44;4944751;28;20031;-68
2023/12/19 03:20:05;;;;;;;6.45;2.83;;;;;;;10.18;100.00;101124.47;4930598;29;20047;-68
2023/12/19 03:22:31;;;;;;;3.38;2.50;;;;;;;10.09;100.00;101119.19;4929651;28;20036;-68
2023/12/19 03:24:57;;;;;;;7.07;2.67;;;;;;;10.03;100.00;101134.00;4932631;29;20028;-68
2023/12/19 03:27:22;;;;;;;6.45;3.33;;;;;;;10.05;100.00;101139.81;4930644;29;20051;-68
2023/12/19 03:29:47;;;;;;;7.72;3.15;;;;;;;9.83;100.00;101134.94;4929757;29;20043;-67
2023/12/19 03:32:13;;;;;;;8.68;3.13;;;;;;;9.81;100.00;101140.63;4932330;29;20131;-68
2023/12/19 03:34:38;;;;;;;4.32;2.65;;;;;;;9.93;100.00;101131.75;4944029;28;20268;-68
2023/12/19 03:37:04;;;;;;;5.78;2.50;;;;;;;9.93;100.00;101121.00;4959533;28;20101;-68
2023/12/19 03:39:30;;;;;;;6.45;2.30;;;;;;;9.71;100.00;101116.09;4927418;29;20047;-68
2023/12/19 03:41:55;;;;;;;5.15;2.58;;;;;;;9.86;100.00;101124.28;4944656;28;20032;-69
2023/12/19 03:44:20;;;;;;;5.22;3.10;;;;;;;9.95;100.00;101121.44;4944998;28;20032;-68
2023/12/19 03:46:46;;;;;;;9.52;2.65;;;;;;;9.96;100.00;101131.09;4928626;29;20028;-68
2023/12/19 03:49:12;;;;;;;7.28;2.70;;;;;;;9.90;100.00;101113.63;4928399;29;20031;-68
2023/12/19 03:51:38;;;;;;;3.83;2.05;;;;;;;9.88;100.00;101119.34;4928707;29;20568;-67
2023/12/19 03:54:03;;;;;;;5.38;2.40;;;;;;;9.76;100.00;101116.66;4930959;29;20036;-68
2023/12/19 03:56:30;;;;;;;4.80;2.47;;;;;;;9.94;100.00;101111.81;4929959;29;20090;-68
2023/12/19 03:58:55;;;;;;;4.78;2.03;;;;;;;9.84;100.00;101123.81;4930383;29;20031;-68
2023/12/19 04:01:23;;;;;;;5.35;2.20;;;;;;;9.90;100.00;101125.16;4949728;28;20218;-68
2023/12/19 04:03:49;;;;;;;5.10;2.85;;;;;;;9.97;100.00;101120.00;4948359;28;20040;-68
2023/12/19 04:06:14;;;;;;;2.80;2.05;;;;;;;10.12;100.00;101118.56;4931122;29;21237;-68
2023/12/19 04:08:42;;;;;;;5.38;2.22;;;;;;;10.04;100.00;101105.97;4933365;29;20047;-68
2023/12/19 04:11:08;;;;;;;3.05;2.38;;;;;;;10.03;100.00;101107.88;4933435;29;20107;-68
2023/12/19 04:13:33;;;;;;;3.88;2.38;;;;;;;9.91;100.00;101102.50;4933368;28;20023;-68
2023/12/19 04:15:59;;;;;;;4.97;2.05;;;;;;;9.96;100.00;101110.38;4950834;28;20043;-68
2023/12/19 04:18:27;;;;;;;4.78;2.08;;;;;;;9.96;100.00;101094.22;4932448;29;20071;-68
2023/12/19 04:20:53;;;;;;;5.03;2.10;;;;;;;10.06;100.00;101078.72;4931623;29;20035;-68
2023/12/19 04:23:18;;;;;;;2.58;2.03;;;;;;;10.01;100.00;101080.53;4934019;29;20051;-69
2023/12/19 04:25:44;;;;;;;5.20;2.45;;;;;;;9.96;100.00;101071.91;4946970;28;20039;-68
2023/12/19 04:28:09;;;;;;;4.75;2.05;;;;;;;9.92;100.00;101079.09;4931363;29;20035;-68
2023/12/19 04:30:34;;;;;;;3.47;1.50;;;;;;;10.08;100.00;101082.66;4932459;29;20082;-68
2023/12/19 04:33:00;;;;;;;4.90;2.35;;;;;;;10.02;100.00;101078.63;4930824;29;20042;-68
2023/12/19 04:35:25;;;;;;;5.25;2.28;;;;;;;10.06;100.00;101081.41;4935669;29;20040;-68
2023/12/19 04:37:51;;;;;;;4.60;2.33;;;;;;;10.07;100.00;101073.00;4946244;28;20070;-68
2023/12/19 04:40:17;;;;;;;5.30;1.85;;;;;;;10.08;100.00;101082.66;4932636;29;20035;-68
2023/12/19 04:42:42;;;;;;;4.07;1.85;;;;;;;10.06;100.00;101076.81;4935402;29;20035;-68
2023/12/19 04:45:08;;;;;;;3.70;1.98;;;;;;;10.08;100.00;101073.78;4934759;29;20326;-69
2023/12/19 04:47:34;;;;;;;5.25;2.58;;;;;;;10.14;100.00;101067.88;4948005;28;20031;-68
2023/12/19 04:49:59;;;;;;;8.23;2.25;;;;;;;10.12;100.00;101059.34;4947425;28;20039;-68
2023/12/19 04:52:24;;;;;;;4.03;2.15;;;;;;;10.10;100.00;101058.13;4932145;29;20032;-68
2023/12/19 04:54:50;;;;;;;3.00;2.15;;;;;;;10.00;100.00;101062.84;4948662;28;20402;-68
2023/12/19 04:57:15;;;;;;;2.60;2.03;;;;;;;9.98;100.00;101057.00;4932012;29;20038;-68
2023/12/19 04:59:41;;;;;;;3.55;2.30;;;;;;;9.85;100.00;101058.13;4960347;28;20054;-68
2023/12/19 05:02:07;;;;;;;2.75;2.13;;;;;;;9.97;100.00;101062.69;4976223;28;20023;-68
2023/12/19 05:04:32;;;;;;;4.15;2.17;;;;;;;10.07;100.00;101056.06;4932491;29;20043;-68
2023/12/19 05:06:57;;;;;;;2.72;1.90;;;;;;;10.00;100.00;101067.44;4933484;28;20038;-68
2023/12/19 05:09:23;;;;;;;3.40;1.90;;;;;;;10.11;100.00;101065.06;4945738;28;20082;-68
2023/12/19 05:11:48;;;;;;;2.92;1.85;;;;;;;10.02;100.00;101054.41;4932707;29;20035;-68
2023/12/19 05:14:14;;;;;;;6.75;1.95;;;;;;;9.98;100.00;101051.63;4948372;28;20419;-69
2023/12/19 05:16:39;;;;;;;3.67;2.08;;;;;;;10.02;100.00;101043.66;4930797;29;20075;-68
2023/12/19 05:19:05;;;;;;;4.72;1.98;;;;;;;9.88;100.00;101048.63;4943160;28;20125;-68
2023/12/19 05:21:39;;;;;;;3.78;1.80;;;;;;;9.88;100.00;101038.66;4959657;28;20079;-68
2023/12/19 05:24:05;;;;;;;3.80;2.08;;;;;;;9.68;100.00;101044.16;4930325;29;20098;-68
2023/12/19 05:26:31;;;;;;;3.42;1.75;;;;;;;9.99;100.00;101045.09;4945785;28;20036;-68
2023/12/19 05:28:57;;;;;;;3.15;2.28;;;;;;;10.02;100.00;101033.69;4929879;29;20126;-68
2023/12/19 05:31:22;;;;;;;3.78;1.88;;;;;;;9.92;100.00;101023.41;4926450;29;20170;-69
2023/12/19 05:33:48;;;;;;;4.10;2.03;;;;;;;10.06;100.00;101016.84;4928017;29;20039;-69
2023/12/19 05:36:14;;;;;;;4.97;1.75;;;;;;;10.02;100.00;101008.69;4957078;28;20615;-68
2023/12/19 05:38:39;;;;;;;2.17;1.55;;;;;;;9.97;100.00;101016.97;4945082;29;20350;-68
2023/12/19 05:41:05;;;;;;;2.15;1.85;;;;;;;9.98;100.00;100999.72;4928180;29;20024;-69
2023/12/19 05:43:31;;;;;;;5.68;2.08;;;;;;;9.92;100.00;101009.94;4932089;29;20039;-68
2023/12/19 05:45:59;;;;;;;2.65;1.65;;;;;;;9.81;100.00;101016.13;4930755;29;20118;-68
2023/12/19 05:48:25;;;;;;;3.05;1.85;;;;;;;10.01;100.00;101021.34;4928974;29;20118;-68
2023/12/19 05:50:51;;;;;;;2.65;1.60;;;;;;;9.98;100.00;101018.56;4930543;29;20043;-68
2023/12/19 05:53:19;;;;;;;3.95;1.85;;;;;;;10.00;100.00;101024.38;4962830;28;20098;-68
2023/12/19 05:55:45;;;;;;;3.95;1.70;;;;;;;9.97;100.00;101028.53;4930372;29;20035;-69
2023/12/19 05:58:10;;;;;;;2.47;1.77;;;;;;;9.94;100.00;101023.03;4945139;29;20023;-69
2023/12/19 06:00:36;;;;;;;2.20;1.75;;;;;;;9.96;100.00;101026.19;4930698;29;20074;-68
2023/12/19 06:03:01;;;;;;;1.48;1.02;;;;;;;9.87;100.00;101022.84;4929038;29;20031;-68
2023/12/19 06:05:27;;;;;;;3.00;1.30;;;;;;;9.70;100.00;101031.16;4928008;29;20031;-68
2023/12/19 06:07:52;;;;;;;1.50;1.13;;;;;;;9.61;100.00;101025.94;4945513;29;20035;-69
2023/12/19 06:10:18;;;;;;;2.50;1.75;;;;;;;9.76;100.00;101025.22;4944664;29;20055;-68
2023/12/19 06:12:43;;;;;;;3.20;1.45;;;;;;;9.89;100.00;101018.69;4943541;28;20039;-69
2023/12/19 06:15:13;;;;;;;1.17;0.93;;;;;;;9.95;100.00;101017.31;4929222;29;20487;-68
2023/12/19 06:17:48;;;;;;;3.72;1.67;;;;;;;10.02;100.00;101012.16;4929930;29;20053;-68
2023/12/19 06:20:16;;;;;;;2.00;1.58;;;;;;;9.94;100.00;101010.38;4959554;28;20047;-68
2023/12/19 06:22:42;;;;;;;3.15;1.30;;;;;;;9.89;100.00;101012.53;4958757;28;20314;-69
2023/12/19 06:25:08;;;;;;;1.90;1.00;;;;;;;9.83;100.00;101003.91;4946811;29;20044;-68
2023/12/19 06:27:34;;;;;;;1.50;1.17;;;;;;;9.93;100.00;101021.47;4929319;29;20042;-68
2023/12/19 06:30:01;;;;;;;2.20;1.27;;;;;;;9.83;100.00;101011.22;4932587;29;20402;-69
2023/12/19 06:32:26;;;;;;;1.95;1.10;;;;;;;9.93;100.00;101013.41;4929830;29;20040;-69
2023/12/19 06:34:52;;;;;;;1.67;1.23;;;;;;;10.00;100.00;101014.41;4932427;29;20091;-68
2023/12/19 06:37:18;;;;;;;2.38;1.20;;;;;;;10.02;100.00;101004.09;4932646;29;20070;-69
2023/12/19 06:39:44;;;;;;;0.77;0.75;;;;;;;9.92;100.00;101001.09;4962200;28;20027;-69
2023/12/19 06:42:09;;;;;;;1.23;1.13;;;;;;;10.04;100.00;101006.44;4946701;28;20387;-68
2023/12/19 06:44:35;;;;;;;1.05;0.95;;;;;;;10.07;100.00;101000.34;4931486;29;20040;-68
2023/12/19 06:47:00;;;;;;;1.02;0.80;;;;;;;9.90;100.00;101009.50;4932635;29;20055;-69
2023/12/19 06:49:31;;;;;;;1.55;1.00;;;;;;;10.00;100.00;101013.63;4932725;28;20074;-69
2023/12/19 06:51:57;;;;;;;1.35;1.20;;;;;;;9.94;100.00;101015.78;4928518;29;20415;-69
2023/12/19 06:54:22;;;;;;;1.15;1.00;;;;;;;9.78;100.00;101011.44;4929130;29;20028;-68
2023/12/19 06:56:48;;;;;;;2.05;1.05;;;;;;;9.60;100.00;101013.59;4928941;29;20036;-68
2023/12/19 06:59:14;;;;;;;1.42;0.90;;;;;;;9.77;100.00;101021.41;4928429;28;20098;-69
2023/12/19 07:01:39;;;;;;;2.38;1.13;;;;;;;9.93;100.00;101016.88;4930100;29;20032;-69
2023/12/19 07:04:05;;;;;;;0.82;0.68;;;;;;;9.88;100.00;101010.97;4931876;29;20060;-68
2023/12/19 07:06:30;;;;;;;3.05;1.20;;;;;;;9.94;100.00;101021.16;4945492;29;20040;-68
2023/12/19 07:08:59;;;;;;;1.08;0.63;;;;;;;9.97;100.00;101023.16;4930147;29;20028;-68
2023/12/19 07:11:26;;;;;;;1.08;0.88;;;;;;;9.97;100.00;101020.44;4927266;29;20094;-68
2023/12/19 07:13:52;;;;;;;1.10;0.73;;;;;;;9.98;100.00;101022.03;4929431;29;20087;-68
2023/12/19 07:16:19;;;;;;;0.60;0.57;;;;;;;9.91;100.00;101013.75;4931673;29;20500;-68
2023/12/19 07:18:45;;;;;;;0.50;0.47;;;;;;;9.93;100.00;101008.00;4945972;29;20044;-68
2023/12/19 07:21:21;;;;;;;0.30;0.30;;;;;;;10.00;100.00;101008.22;4932139;29;20075;-68
2023/12/19 07:23:47;;;;;;;0.77;0.63;;;;;;;9.96;100.00;100997.38;4943812;29;20039;-68
2023/12/19 07:26:27;;;;;;;0.80;0.52;;;;;;;9.92;100.00;100995.69;4928565;29;20072;-68
2023/12/19 07:28:54;;;;;;;0.43;0.43;;;;;;;9.87;100.00;100987.88;4958934;28;20031;-68
2023/12/19 07:31:23;;;;;;;0.98;0.75;;;;;;;9.91;100.00;100984.16;4931159;29;20126;-68
2023/12/19 07:33:51;;;;;;;0.50;0.50;;;;;;;9.94;100.00;100983.47;4933166;29;20038;-68
2023/12/19 07:36:16;;;;;;;0.90;0.65;;;;;;;9.98;100.00;100970.13;4931636;29;20036;-68
2023/12/19 07:38:42;;;;;;;0.98;0.70;;;;;;;9.88;100.00;100970.59;4935610;29;20057;-69
2023/12/19 07:41:07;;;;;;;0.90;0.52;;;;;;;9.95;100.00;100963.50;4950597;29;20419;-68
2023/12/19 07:43:33;;;;;;;0.50;0.50;;;;;;;10.00;100.00;100957.13;4934064;29;20036;-68
2023/12/19 07:45:58;;;;;;;0.55;0.50;;;;;;;9.95;100.00;100962.72;4934964;28;20039;-68
2023/12/19 07:48:24;;;;;;;0.77;0.63;;;;;;;9.83;100.00;100952.03;4934740;29;20046;-68
2023/12/19 07:50:50;;;;;;;0.82;0.82;;;;;;;9.95;100.00;100949.28;4947583;29;20028;-69
2023/12/19 07:53:15;;;;;;;0.77;0.55;;;;;;;9.74;100.00;100941.41;4934715;29;20590;-68
2023/12/19 07:55:41;;;;;;;0.50;0.50;;;;;;;9.91;100.00;100937.66;4948785;29;20494;-68
2023/12/19 07:58:07;;;;;;;0.80;0.80;;;;;;;9.82;100.00;100931.63;4934303;29;20031;-68
2023/12/19 08:00:33;;;;;;;0.60;0.50;;;;;;;9.81;100.00;100917.38;4933430;29;20293;-68
2023/12/19 08:03:00;;;;;;;0.60;0.60;;;;;;;9.80;100.00;100931.97;4960337;28;20032;-68
2023/12/19 08:05:25;;;;;;;0.65;0.65;;;;;;;9.88;100.00;100931.06;4935681;29;20039;-68
2023/12/19 08:07:50;;;;;;;0.50;0.50;;;;;;;9.81;100.00;100946.22;4932600;29;20039;-69
2023/12/19 08:10:16;;;;;;;0.50;0.50;;;;;;;9.82;100.00;100937.00;4933762;29;20445;-69
2023/12/19 08:12:41;;;;;;;0.63;0.60;;;;;;;9.82;100.00;100937.78;4948787;28;20038;-68
2023/12/19 08:15:10;;;;;;;0.70;0.70;;;;;;;9.85;100.00;100941.72;4936278;29;20040;-69
2023/12/19 08:17:37;;;;;;;0.40;0.32;;;;;;;9.87;100.00;100942.91;4965558;28;20108;-68
2023/12/19 08:20:07;;;;;;;0.40;0.40;;;;;;;9.77;100.00;100929.19;4935697;29;20031;-68
2023/12/19 08:22:32;;;;;;;0.50;0.50;;;;;;;9.82;100.00;100937.00;4947512;28;20043;-68
2023/12/19 08:24:58;;;;;;;0.40;0.40;;;;;;;9.77;100.00;100931.88;4935196;29;20028;-68
2023/12/19 08:27:26;;;;;;;0.63;0.50;;;;;;;9.89;100.00;100921.09;4945025;28;20028;-70
2023/12/19 08:29:52;;;;;;;0.47;0.38;;;;;;;9.96;100.00;100922.06;4933299;29;20053;-69
2023/12/19 08:32:17;;;;;;;0.47;0.47;;;;;;;9.88;100.00;100911.44;4959227;28;20122;-68
2023/12/19 08:34:43;;;;;;;1.27;0.47;;;;;;;9.84;100.00;100910.56;4931084;29;20032;-68
2023/12/19 08:37:09;;;;;;;0.55;0.55;;;;;;;9.89;100.00;100916.47;4934873;29;20043;-68
2023/12/19 08:39:34;;;;;;;0.52;0.52;;;;;;;9.88;100.00;100916.81;4935391;29;20019;-69
2023/12/19 08:42:00;;;;;;;0.55;0.40;;;;;;;9.91;100.00;100911.53;4935002;29;20509;-68
2023/12/19 08:44:28;;;;;;;0.52;0.52;;;;;;;9.87;100.00;100916.03;4934692;29;20071;-68
2023/12/19 08:46:56;;;;;;;0.75;0.50;;;;;;;9.94;100.00;100912.75;4963038;28;20671;-69
2023/12/19 08:49:22;;;;;;;0.65;0.43;;;;;;;9.96;100.00;100903.22;4950815;28;20044;-68
2023/12/19 08:51:48;;;;;;;1.17;0.50;;;;;;;9.98;100.00;100905.56;4934212;29;20038;-68
2023/12/19 08:54:14;;;;;;;1.08;0.63;;;;;;;9.97;100.00;100902.09;4933937;29;20511;-68
2023/12/19 08:56:41;;;;;;;0.38;0.38;;;;;;;9.97;100.00;100912.84;4933362;29;20070;-69
2023/12/19 08:59:07;;;;;;;0.70;0.70;;;;;;;9.97;100.00;100906.66;4933916;29;20442;-68
2023/12/19 09:01:32;;;;;;;0.65;0.55;;;;;;;9.90;100.00;100901.91;4946680;29;20027;-68
2023/12/19 09:04:00;;;;;;;0.80;0.35;;;;;;;9.88;100.00;100900.66;4934703;29;20081;-69
2023/12/19 09:06:26;;;;;;;0.70;0.50;;;;;;;9.78;100.00;100906.53;4933762;29;20051;-68
2023/12/19 09:08:51;;;;;;;0.77;0.57;;;;;;;9.75;100.00;100904.53;4962786;28;20511;-68
2023/12/19 09:11:17;;;;;;;0.68;0.47;;;;;;;9.80;100.00;100899.69;4945446;29;20083;-69
2023/12/19 09:13:42;;;;;;;0.50;0.50;;;;;;;9.59;100.00;100901.00;4963723;28;20475;-68
2023/12/19 09:16:07;;;;;;;0.93;0.52;;;;;;;9.64;100.00;100903.47;4935627;29;20094;-69
2023/12/19 09:18:33;;;;;;;0.30;0.30;;;;;;;9.61;100.00;100904.16;4933487;29;20035;-68
2023/12/19 09:20:58;;;;;;;0.45;0.32;;;;;;;9.67;100.00;100892.03;4950559;28;20051;-68
2023/12/19 09:23:27;;;;;;;0.35;0.30;;;;;;;9.74;100.00;100876.06;4934603;29;20036;-69
2023/12/19 09:25:53;;;;;;;0.40;0.38;;;;;;;9.95;100.00;100874.75;4933782;29;20035;-68
2023/12/19 09:28:18;;;;;;;0.40;0.40;;;;;;;9.86;100.00;100884.88;4934641;29;20035;-68
2023/12/19 09:30:44;;;;;;;0.45;0.45;;;;;;;9.68;100.00;100889.00;4934372;29;20195;-68
2023/12/19 09:33:09;;;;;;;0.77;0.50;;;;;;;9.80;100.00;100885.47;4933955;29;20049;-68
2023/12/19 09:35:35;;;;;;;0.47;0.47;;;;;;;9.91;100.00;100883.88;4932939;29;20423;-69
2023/12/19 09:38:03;;;;;;;1.15;0.82;;;;;;;9.88;100.00;100871.09;4933176;29;20050;-68
2023/12/19 09:40:29;;;;;;;1.02;0.40;;;;;;;9.85;100.00;100863.72;4932855;29;20384;-68
2023/12/19 09:42:57;;;;;;;0.40;0.40;;;;;;;9.81;100.00;100876.28;4933980;29;20035;-69
2023/12/19 09:45:24;;;;;;;0.45;0.40;;;;;;;9.86;100.00;100863.38;4933287;29;20031;-69
2023/12/19 09:47:59;;;;;;;0.30;0.30;;;;;;;9.51;100.00;100867.00;4947936;28;20509;-68
2023/12/19 09:50:28;;;;;;;0.52;0.50;;;;;;;9.59;100.00;100863.38;4933573;29;20050;-69
2023/12/19 09:52:57;;;;;;;0.32;0.32;;;;;;;9.57;100.00;100860.25;4931859;29;20058;-68
2023/12/19 09:55:28;;;;;;;0.20;0.20;;;;;;;9.73;100.00;100853.00;4930022;29;20043;-68
2023/12/19 09:57:55;;;;;;;0.35;0.25;;;;;;;9.80;100.00;100850.50;4928144;29;20090;-68
2023/12/19 10:00:22;;;;;;;0.30;0.30;;;;;;;9.90;100.00;100858.88;4932113;29;20043;-69
2023/12/19 10:02:48;;;;;;;0.20;0.20;;;;;;;9.88;100.00;100849.56;4933206;29;20050;-68
2023/12/19 10:05:13;;;;;;;0.38;0.30;;;;;;;9.82;100.00;100835.59;4947266;28;20491;-69
2023/12/19 10:07:40;;;;;;;0.45;0.45;;;;;;;9.69;100.00;100822.56;4932956;29;20023;-69
2023/12/19 10:10:07;;;;;;;0.30;0.30;;;;;;;9.96;100.00;100827.91;4928638;29;20040;-68
2023/12/19 10:12:32;;;;;;;0.52;0.45;;;;;;;9.89;100.00;100819.63;4929678;29;20023;-68
2023/12/19 10:15:13;;;;;;;0.30;0.30;;;;;;;9.88;100.00;100814.59;4933069;29;20119;-68
2023/12/19 10:17:39;;;;;;;0.30;0.30;;;;;;;9.93;100.00;100796.28;4930560;29;20031;-68
2023/12/19 10:20:13;;;;;;;0.30;0.20;;;;;;;9.99;100.00;100783.34;4945985;29;20078;-68
2023/12/19 10:22:39;;;;;;;0.20;0.20;;;;;;;9.88;100.00;100785.00;4931804;29;20031;-68
2023/12/19 10:25:09;;;;;;;0.52;0.20;;;;;;;9.74;100.00;100781.97;4933495;29;20049;-68
2023/12/19 10:27:34;;;;;;;0.40;0.40;;;;;;;9.76;100.00;100775.13;4932006;29;20558;-68
2023/12/19 10:30:29;;;;;;;0.40;0.40;;;;;;;9.75;100.00;100765.50;4932154;29;20122;-68
2023/12/19 10:32:58;;;;;;;0.30;0.30;;;;;;;9.83;100.00;100777.97;4917133;29;20099;-69
2023/12/19 10:35:23;;;;;;;0.20;0.20;;;;;;;9.93;100.00;100772.09;4931981;29;20042;-69
2023/12/19 10:37:48;;;;;;;0.30;0.30;;;;;;;10.02;100.00;100774.63;4945413;29;20138;-69
2023/12/19 10:40:19;;;;;;;0.30;0.30;;;;;;;9.88;100.00;100774.25;4962399;28;20063;-68
2023/12/19 10:42:54;;;;;;;0.30;0.30;;;;;;;9.91;100.00;100773.56;4947593;28;20099;-69
2023/12/19 10:45:30;;;;;;;1.02;0.30;;;;;;;9.72;100.00;100760.00;4931010;28;20499;-68
2023/12/19 10:47:55;;;;;;;0.45;0.40;;;;;;;9.75;100.00;100767.41;4933488;29;20034;-69
2023/12/19 10:50:21;;;;;;;0.38;0.38;;;;;;;10.00;100.00;100763.41;4931601;29;20466;-68
2023/12/19 10:52:52;;;;;;;0.28;0.22;;;;;;;9.95;100.00;100752.91;4928269;29;20036;-68
2023/12/19 10:55:22;;;;;;;0.38;0.38;;;;;;;9.97;100.00;100742.56;4946910;29;20067;-68
2023/12/19 10:57:49;;;;;;;0.30;0.30;;;;;;;9.97;100.00;100746.06;4943473;29;20048;-69
2023/12/19 11:00:22;;;;;;;0.40;0.40;;;;;;;10.02;100.00;100742.34;4928714;29;20028;-68
2023/12/19 11:03:10;;;;;;;0.82;0.32;;;;;;;10.03;100.00;100738.50;4926317;29;20040;-69
2023/12/19 11:05:39;;;;;;;0.30;0.30;;;;;;;10.03;100.00;100733.13;4933115;29;20118;-68
2023/12/19 11:08:14;;;;;;;0.73;0.50;;;;;;;10.14;100.00;100720.75;4932600;29;20516;-68
2023/12/19 11:10:40;;;;;;;0.47;0.47;;;;;;;10.14;100.00;100711.88;4946425;29;20056;-68
2023/12/19 11:13:10;;;;;;;0.60;0.50;;;;;;;10.15;100.00;100716.91;4931246;29;20032;-68
2023/12/19 11:15:42;;;;;;;0.55;0.55;;;;;;;10.08;100.00;100705.97;4945520;29;20035;-68
2023/12/19 11:18:27;;;;;;;0.63;0.50;;;;;;;10.18;100.00;100713.50;4929412;29;20487;-68